PE1BMM-13 Weather Reports


time (UTC)temp
F
wind
direction
speed
knots
gust
knots
rain 1hr
in
rain 24hr
in
rain mn
in
humidity
%
barometer
mb
20260506092052 55 146 2.6 10.4 0.00 0.00 0.00 74 1010.2
20260506091900 55 131 2.6 10.4 0.00 0.00 0.00 74 1010.2
20260506091546 55 56 3.5 9.6 0.00 0.00 0.00 75 1010.1
20260506091040 55 254 3.5 9.6 0.00 0.00 0.00 73 1010.1
20260506090904 55 190 2.6 9.6 0.00 0.00 0.00 73 1010.1
20260506090534 55 117 2.6 9.6 0.00 0.00 0.00 74 1010.2
20260506090028 56 139 2.6 9.6 0.00 0.00 0.00 74 1010.1
20260506085856 56 132 2.6 9.6 0.00 0.00 0.00 73 1010.1
20260506085522 56 76 3.5 10.4 0.00 0.00 0.00 73 1010.1
20260506085016 56 110 3.5 10.4 0.00 0.00 0.00 73 1010.1
20260506084856 56 73 3.5 10.4 0.00 0.00 0.00 73 1010.1
20260506084814 56 65 2.6 8.7 0.00 0.00 0.00 73 1009.9
20260506084610 56 106 3.5 9.6 0.00 0.00 0.00 73 1010.0
20260506084131 56 97 3.5 8.7 0.00 0.00 0.00 72 1010.0
20260506083500 56 56 2.6 7.0 0.00 0.00 0.00 74 1010.0
20260506082952 56 53 2.6 7.0 0.00 0.00 0.00 76 1009.9
20260506082856 56 104 2.6 7.0 0.00 0.00 0.00 77 1009.9
20260506082453 56 91 2.6 7.0 0.00 0.00 0.00 77 1009.9
20260506081940 56 95 2.6 7.0 0.00 0.00 0.00 76 1010.0
20260506081854 56 95 2.6 7.0 0.00 0.00 0.00 76 1010.0
20260506081434 56 102 2.6 7.8 0.00 0.00 0.00 75 1009.9
20260506080928 56 98 2.6 7.8 0.00 0.00 0.00 76 1009.9
20260506080854 56 111 2.6 7.8 0.00 0.00 0.00 76 1009.9
20260506080822 55 85 2.6 8.7 0.00 0.00 0.00 76 1009.8
20260506080602 56 33 2.6 8.7 0.00 0.00 0.00 77 1009.8
20260506080113 55 27 3.5 8.7 0.00 0.00 0.00 76 1009.8
20260506073408 56 144 2.6 7.8 0.00 0.00 0.00 78 1009.8
20260506072907 55 93 3.5 8.7 0.00 0.00 0.00 79 1009.8
20260506072855 55 103 3.5 8.7 0.00 0.00 0.00 79 1009.8
20260506072402 55 117 2.6 8.7 0.00 0.00 0.00 80 1009.7
20260506071906 54 170 2.6 8.7 0.00 0.00 0.00 81 1009.8
20260506071853 54 16 2.6 8.7 0.00 0.00 0.00 81 1009.8
20260506071403 54 154 2.6 7.8 0.00 0.00 0.00 81 1009.8
20260506070903 53 63 2.6 7.8 0.00 0.00 0.00 82 1009.8
20260506070855 53 81 2.6 7.8 0.00 0.00 0.00 82 1009.8
20260506070825 53 97 1.7 4.3 0.00 0.00 0.00 82 1009.7
20260506070555 53 132 2.6 7.0 0.00 0.00 0.00 82 1009.7
20260506070109 53 98 1.7 4.3 0.00 0.00 0.00 82 1009.7
20260506062400 52 108 1.7 7.0 0.00 0.00 0.00 85 1009.6
20260506061901 52 85 1.7 7.8 0.00 0.00 0.00 85 1009.6
20260506061856 52 100 1.7 7.8 0.00 0.00 0.00 85 1009.6
20260506061401 52 93 2.6 7.8 0.00 0.00 0.00 85 1009.5
20260506060900 52 77 2.6 7.8 0.00 0.00 0.00 85 1009.4
20260506060855 52 41 2.6 7.8 0.00 0.00 0.00 85 1009.5
20260506060401 52 127 2.6 7.8 0.00 0.00 0.00 85 1009.4
20260506051356 51 2 1.7 6.1 0.00 0.00 0.00 85 1009.3
20260506050900 51 75 0.9 6.1 0.00 0.00 0.00 85 1009.3
20260506050852 51 75 0.9 6.1 0.00 0.00 0.00 85 1009.4
20260506050354 51 343 0.9 3.5 0.00 0.00 0.00 85 1009.4
20260506044850 51 349 1.7 6.1 0.00 0.00 0.00 85 1009.5
20260506044354 51 18 1.7 6.1 0.00 0.00 0.00 84 1009.6
20260506043859 51 52 1.7 5.2 0.00 0.00 0.00 84 1009.5
20260506043854 51 52 1.7 5.2 0.00 0.00 0.00 84 1009.6
20260506043354 51 159 1.7 7.0 0.00 0.00 0.00 84 1009.6
20260506042855 50 98 1.7 7.0 0.00 0.00 0.00 84 1009.5
20260506042849 50 359 1.7 7.0 0.00 0.00 0.00 84 1009.5
20260506042355 50 112 1.7 5.2 0.00 0.00 0.00 84 1009.6
20260506041857 50 14 1.7 5.2 0.00 0.00 0.00 84 1009.4
20260506041851 50 35 1.7 5.2 0.00 0.00 0.00 84 1009.5
20260506041354 50 66 1.7 5.2 0.00 0.00 0.00 84 1009.5
20260506040856 50 356 1.7 5.2 0.00 0.00 0.00 85 1009.5
20260506040851 50 4 1.7 5.2 0.00 0.00 0.00 85 1009.5
20260506040355 50 12 1.7 5.2 0.00 0.00 0.00 85 1009.5
20260506035855 51 68 1.7 5.2 0.00 0.00 0.00 85 1009.6
20260506035849 51 71 1.7 5.2 0.00 0.00 0.00 85 1009.5
20260506035356 51 23 1.7 5.2 0.00 0.00 0.00 85 1009.5
20260506034850 51 359 1.7 5.2 0.00 0.00 0.00 85 1009.5
20260506034342 51 112 1.7 4.3 0.00 0.00 0.00 85 1009.6
20260506033848 51 187 1.7 4.3 0.00 0.00 0.00 85 1009.5
20260506033837 51 80 1.7 4.3 0.00 0.00 0.00 85 1009.5
20260506033334 51 21 1.7 7.0 0.00 0.00 0.00 85 1009.6
20260506032844 51 127 2.6 7.0 0.00 0.00 0.00 85 1009.6
20260506032825 51 112 2.6 7.0 0.00 0.00 0.00 85 1009.6
20260506032319 51 133 2.6 7.8 0.00 0.00 0.00 86 1009.7
20260506031845 51 54 2.6 7.8 0.00 0.00 0.00 86 1009.7
20260506031813 51 9 2.6 7.8 0.00 0.00 0.00 86 1009.7
20260506031307 50 52 1.7 7.0 0.00 0.00 0.00 86 1009.8
20260506030844 50 338 1.7 6.1 0.00 0.00 0.00 86 1009.8
20260506030801 50 14 1.7 6.1 0.00 0.00 0.00 86 1009.8
20260506030255 50 143 0.9 4.3 0.00 0.00 0.00 86 1009.8
20260506025843 50 4 0.9 6.1 0.00 0.00 0.00 86 1009.9
20260506025749 50 0 0.9 6.1 0.00 0.00 0.00 86 1009.9
20260506025243 50 137 1.7 6.1 0.00 0.00 0.00 86 1009.8
20260506024844 50 127 1.7 5.2 0.00 0.00 0.00 86 1009.9
20260506024737 50 127 1.7 5.2 0.00 0.00 0.00 86 1009.9
20260506024231 50 33 1.7 7.0 0.00 0.00 0.00 86 1009.8
20260506023844 50 61 2.6 7.0 0.00 0.00 0.00 86 1009.9
20260506023725 50 314 2.6 7.0 0.00 0.00 0.00 86 1009.9
20260506023219 50 104 1.7 7.8 0.00 0.00 0.00 86 1009.9
20260506022843 50 98 1.7 7.8 0.00 0.00 0.00 86 1010.0
20260506022713 50 68 1.7 7.8 0.00 0.00 0.00 86 1010.0
20260506022209 50 21 1.7 7.0 0.00 0.00 0.00 85 1010.0
20260506021844 50 117 0.9 7.0 0.00 0.00 0.00 85 1009.8
20260506021701 50 63 0.9 7.0 0.00 0.00 0.00 84 1009.9
20260506021155 50 18 0.9 6.1 0.00 0.00 0.00 84 1010.0
20260506020839 50 26 0.9 4.3 0.00 0.00 0.00 84 1010.1
20260506020649 50 25 0.9 4.3 0.00 0.00 0.00 84 1010.1
20260506020143 50 68 0.9 5.2 0.00 0.00 0.00 84 1010.1
20260506015837 50 24 1.7 5.2 0.00 0.00 0.00 84 1010.1
20260506015637 50 1 0.9 5.2 0.00 0.00 0.00 84 1010.1
20260506015131 50 49 0.9 5.2 0.00 0.00 0.00 84 1010.2
20260506014838 50 4 0.9 3.5 0.00 0.00 0.00 85 1010.1
20260506014628 50 79 0.9 3.5 0.00 0.00 0.00 85 1010.2
20260506014127 50 32 0.9 3.5 0.00 0.00 0.00 85 1010.2
20260506013841 50 106 0.9 3.5 0.00 0.00 0.00 85 1010.2
20260506013627 50 76 0.9 3.5 0.00 0.00 0.00 85 1010.3
20260506013125 49 35 0.9 3.5 0.00 0.00 0.00 85 1010.2
20260506012837 49 349 0.9 2.6 0.00 0.00 0.00 85 1010.3
20260506012625 49 30 0.9 3.5 0.00 0.00 0.00 86 1010.3
20260506012125 49 42 0.9 3.5 0.00 0.00 0.00 86 1010.4
20260506011837 49 42 0.9 3.5 0.00 0.00 0.00 86 1010.3
20260506011623 49 21 0.9 3.5 0.00 0.00 0.00 86 1010.3
20260506011121 49 81 0.9 3.5 0.00 0.00 0.00 86 1010.4
20260506010839 49 189 0.9 3.5 0.00 0.00 0.00 86 1010.3
20260506010622 49 91 0.9 3.5 0.00 0.00 0.00 86 1010.4
20260506010122 49 3 0.9 4.3 0.00 0.00 0.00 86 1010.3
20260506005838 49 100 0.9 4.3 0.00 0.00 0.00 86 1010.3
20260506005622 49 191 0.9 4.3 0.00 0.00 0.00 86 1010.3
20260506005231 49 59 1.7 5.2 0.00 0.00 0.00 86 1010.7
20260506005120 49 117 0.9 3.5 0.00 0.00 0.00 86 1010.4
20260506005009 49 66 0.9 3.5 0.00 0.00 0.00 86 1010.4
20260506004622 49 107 0.9 5.2 0.00 0.00 0.00 86 1010.5
20260506004120 49 102 1.7 5.2 0.00 0.00 0.00 86 1010.5
20260506003618 49 88 1.7 5.2 0.00 0.00 0.00 86 1010.6
20260506003118 49 79 0.9 5.2 0.00 0.00 0.00 86 1010.7
20260506002832 48 165 0.9 3.5 0.00 0.00 0.00 86 1010.7
20260506002620 48 46 0.9 3.5 0.00 0.00 0.00 86 1010.7
20260506002118 48 139 0.9 3.5 0.00 0.00 0.00 86 1010.7
20260506001833 48 51 0.9 4.3 0.00 0.00 0.00 86 1010.8
20260506001613 48 52 0.9 4.3 0.00 0.00 0.00 86 1010.7
20260506001107 48 48 0.9 4.3 0.00 0.00 0.00 86 1010.8
20260506000829 48 45 0.9 3.5 0.00 0.00 0.00 86 1010.7
20260506000601 48 21 0.9 3.5 0.00 0.00 0.00 86 1010.9
20260506000101 48 53 0.9 2.6 0.00 0.00 0.00 86 1010.9
20260505235833 48 317 0.9 3.5 0.00 0.00 0.00 86 1011.0
20260505235601 48 55 0.9 3.5 0.00 0.00 0.00 86 1011.0
20260505235101 48 19 0.9 3.5 0.00 0.00 0.00 86 1011.1
20260505234829 48 66 0.9 3.5 0.00 0.00 0.00 86 1011.1
20260505234558 48 48 0.9 3.5 0.00 0.00 0.00 86 1011.1
20260505234309 48 15 0.9 3.5 0.00 0.00 0.00 86 1011.3
20260505234118 48 25 0.9 3.5 0.00 0.00 0.00 86 1011.2
20260505233559 48 16 1.7 3.5 0.00 0.00 0.00 86 1011.2
20260505233059 48 358 1.7 3.5 0.00 0.00 0.00 86 1011.2
20260505232829 48 358 0.9 3.5 0.00 0.00 0.00 85 1011.3
20260505232558 48 66 0.9 2.6 0.00 0.00 0.00 85 1011.3
20260505232057 48 12 0.9 2.6 0.00 0.00 0.00 85 1011.3
20260505231827 48 10 0.9 2.6 0.00 0.00 0.00 85 1011.3
20260505231559 49 30 0.9 2.6 0.00 0.00 0.00 85 1011.3
20260505231058 49 34 0.9 2.6 0.00 0.00 0.00 85 1011.3
20260505230827 49 39 0.9 2.6 0.00 0.00 0.00 84 1011.3
20260505230559 49 78 0.9 4.3 0.00 0.00 0.00 84 1011.3
20260505230058 49 81 1.7 6.1 0.00 0.00 0.00 84 1011.3
20260505225827 49 103 1.7 6.1 0.00 0.00 0.00 84 1011.2
20260505225558 49 44 0.9 6.1 0.00 0.00 0.00 84 1011.2
20260505225058 49 341 0.9 3.5 0.00 0.00 0.00 84 1011.3
20260505224831 49 70 0.9 3.5 0.00 0.00 0.00 84 1011.4
20260505224558 49 70 0.9 4.3 0.00 0.00 0.00 83 1011.3
20260505224101 49 81 0.9 4.3 0.00 0.00 0.00 83 1011.4
20260505223827 49 82 0.9 4.3 0.00 0.00 0.00 83 1011.3
20260505223558 49 68 0.9 4.3 0.00 0.00 0.00 82 1011.4
20260505223058 50 117 0.9 4.3 0.00 0.00 0.00 82 1011.4
20260505222827 50 117 0.9 4.3 0.00 0.00 0.00 82 1011.5
20260505222558 50 117 0.9 4.3 0.00 0.00 0.00 82 1011.4
20260505222058 50 81 0.9 4.3 0.00 0.00 0.00 81 1011.4
20260505221833 50 127 1.7 4.3 0.00 0.00 0.00 81 1011.5
20260505221558 50 156 1.7 4.3 0.00 0.00 0.00 81 1011.5
20260505221059 50 16 1.7 4.3 0.00 0.00 0.00 81 1011.5
20260505220827 50 56 0.9 4.3 0.00 0.00 0.00 81 1011.6
20260505220558 50 78 0.9 4.3 0.00 0.00 0.00 81 1011.6
20260505220057 50 133 0.9 3.5 0.00 0.00 0.00 81 1011.6
20260505215825 50 16 1.7 5.2 0.00 0.00 0.00 80 1011.7
20260505215552 50 107 1.7 5.2 0.00 0.00 0.00 80 1011.7
20260505215053 50 26 1.7 5.2 0.00 0.00 0.00 80 1011.8
20260505214824 50 92 1.7 3.5 0.00 0.00 0.00 80 1011.7
20260505214552 50 66 1.7 3.5 0.00 0.00 0.00 80 1011.7
20260505214054 50 112 1.7 3.5 0.00 0.00 0.00 80 1011.8
20260505213825 50 22 1.7 3.5 0.00 0.00 0.00 80 1011.7
20260505213554 49 346 1.7 3.5 0.00 0.00 0.00 80 1011.8
20260505213047 50 104 0.9 3.5 0.00 0.00 0.00 80 1011.8
20260505212824 49 153 0.9 3.5 0.00 0.00 0.00 80 1011.9
20260505212547 49 117 0.9 5.2 0.00 0.00 0.00 80 1011.9
20260505212048 49 355 0.9 5.2 0.00 0.00 0.00 80 1011.8
20260505211824 49 40 0.9 5.2 0.00 0.00 0.00 80 1011.9
20260505211547 49 77 0.9 3.5 0.00 0.00 0.00 80 1011.9
20260505211047 49 82 0.9 3.5 0.00 0.00 0.00 80 1011.9
20260505210823 49 131 0.9 3.5 0.00 0.00 0.00 80 1011.8
20260505210548 49 131 0.9 3.5 0.00 0.00 0.00 80 1011.9
20260505210046 49 88 1.7 3.5 0.00 0.00 0.00 80 1011.9
20260505205825 49 96 1.7 3.5 0.00 0.00 0.00 80 1011.9
20260505205745 50 135 1.7 3.5 0.00 0.00 0.00 79 1011.9
20260505205552 49 95 1.7 3.5 0.00 0.00 0.00 79 1012.0
20260505205109 50 98 1.7 3.5 0.00 0.00 0.00 79 1011.9
20260505204544 50 135 0.9 3.5 0.00 0.00 0.00 79 1011.9
20260505204047 50 97 1.7 4.3 0.00 0.00 0.00 79 1011.9
20260505203823 50 140 1.7 4.3 0.00 0.00 0.00 79 1011.9
20260505203542 50 141 1.7 4.3 0.00 0.00 0.00 79 1012.0
20260505203044 50 122 0.9 3.5 0.00 0.00 0.00 79 1011.8
20260505202825 50 96 0.9 3.5 0.00 0.00 0.00 79 1011.8
20260505202543 50 72 0.9 3.5 0.00 0.00 0.00 79 1011.7
20260505202041 50 113 0.9 3.5 0.00 0.00 0.00 78 1011.8
20260505201827 50 29 0.9 3.5 0.00 0.00 0.00 78 1011.8
20260505201541 50 30 0.9 3.5 0.00 0.00 0.00 78 1011.8
20260505201040 50 30 1.7 5.2 0.00 0.00 0.00 78 1011.7
20260505200823 50 62 1.7 5.2 0.00 0.00 0.00 78 1011.6
20260505200541 50 60 1.7 5.2 0.00 0.00 0.00 77 1011.7
20260505200042 50 39 1.7 5.2 0.00 0.00 0.00 77 1011.6
20260505195824 50 89 1.7 5.2 0.00 0.00 0.00 77 1011.6
20260505195747 50 29 1.7 7.0 0.00 0.00 0.00 76 1011.6
20260505195552 50 127 1.7 4.3 0.00 0.00 0.00 77 1011.6
20260505195107 50 65 1.7 4.3 0.00 0.00 0.00 76 1011.4
20260505194538 50 59 1.7 7.0 0.00 0.00 0.00 76 1011.6
20260505194037 50 335 1.7 7.8 0.00 0.00 0.00 76 1011.5
20260505193824 50 135 1.7 7.8 0.00 0.00 0.00 76 1011.5
20260505193536 50 1 1.7 7.8 0.00 0.00 0.00 76 1011.4
20260505193037 50 56 1.7 5.2 0.00 0.00 0.00 76 1011.4
20260505192824 50 127 1.7 6.1 0.00 0.00 0.00 76 1011.4
20260505192538 51 60 1.7 6.1 0.00 0.00 0.00 75 1011.4
20260505192036 51 91 1.7 6.1 0.00 0.00 0.00 75 1011.4
20260505191823 51 43 1.7 6.1 0.00 0.00 0.00 75 1011.5
20260505191536 51 122 1.7 6.1 0.00 0.00 0.00 75 1011.4
20260505191037 51 87 1.7 6.1 0.00 0.00 0.00 75 1011.3
20260505190823 51 98 1.7 6.1 0.00 0.00 0.00 75 1011.4
20260505190536 51 352 1.7 7.0 0.00 0.00 0.00 75 1011.5
20260505190036 51 135 1.7 7.0 0.00 0.00 0.00 75 1011.4
20260505185825 51 83 1.7 7.0 0.00 0.00 0.00 75 1011.4
20260505185534 51 138 1.7 6.1 0.00 0.00 0.00 75 1011.4
20260505185034 51 112 1.7 6.1 0.00 0.00 0.00 75 1011.3
20260505184823 51 98 1.7 6.1 0.00 0.00 0.00 74 1011.3
20260505184534 52 78 1.7 6.1 0.00 0.00 0.00 74 1011.3
20260505184035 52 100 1.7 6.1 0.00 0.00 0.00 74 1011.2
20260505183823 52 152 2.6 6.1 0.00 0.00 0.00 74 1011.2
20260505183536 52 41 2.6 6.1 0.00 0.00 0.00 74 1011.2
20260505183029 52 117 2.6 7.8 0.00 0.00 0.00 75 1011.2
20260505182823 52 73 2.6 7.8 0.00 0.00 0.00 75 1011.3
20260505182523 52 127 1.7 7.8 0.00 0.00 0.00 75 1011.3
20260505182020 53 89 1.7 7.8 0.00 0.00 0.00 76 1011.2
20260505181824 53 52 1.7 6.1 0.00 0.00 0.00 76 1011.3
20260505181511 53 341 2.6 7.0 0.00 0.00 0.00 76 1011.2
20260505181005 53 21 2.6 8.7 0.00 0.00 0.00 75 1011.4
20260505180825 53 83 2.6 8.7 0.00 0.00 0.00 75 1011.4
20260505180459 53 77 2.6 8.7 0.00 0.00 0.00 74 1011.4
20260505180255 53 51 2.6 10.4 0.00 0.00 0.00 74 1011.4
20260505180053 53 25 2.6 10.4 0.00 0.00 0.00 74 1011.4
20260505175447 53 4 2.6 10.4 0.00 0.00 0.00 74 1011.4
20260505175259 53 186 2.6 7.8 0.00 0.00 0.00 73 1011.4
20260505175048 53 44 2.6 7.8 0.00 0.00 0.00 73 1011.4
20260505174435 53 182 2.6 9.6 0.00 0.00 0.00 73 1011.4
20260505173929 53 122 3.5 9.6 0.00 0.00 0.00 73 1011.4
20260505173823 53 127 3.5 9.6 0.00 0.00 0.00 73 1011.3
20260505173423 53 64 2.6 8.7 0.00 0.00 0.00 73 1011.3
20260505172918 54 42 2.6 7.8 0.00 0.00 0.00 74 1011.5
20260505172819 54 46 2.6 7.8 0.00 0.00 0.00 74 1011.4
20260505172411 54 302 3.5 7.8 0.00 0.00 0.00 73 1011.4
20260505171905 54 8 3.5 7.8 0.00 0.00 0.00 73 1011.3
20260505171821 54 20 3.5 7.8 0.00 0.00 0.00 73 1011.3
20260505171359 54 334 3.5 8.7 0.00 0.00 0.00 73 1011.3
20260505170854 55 117 3.5 10.4 0.00 0.00 0.00 72 1011.4
20260505170819 55 110 3.5 10.4 0.00 0.00 0.00 72 1011.4
20260505170731 55 33 3.5 8.7 0.00 0.00 0.00 71 1011.3
20260505170514 55 337 3.5 10.4 0.00 0.00 0.00 72 1011.4
20260505170036 55 74 3.5 8.7 0.00 0.00 0.00 71 1011.3
20260505165335 55 122 2.6 11.3 0.00 0.00 0.00 71 1011.3
20260505164829 55 52 2.6 11.3 0.00 0.00 0.00 72 1011.3
20260505164817 55 43 2.6 11.3 0.00 0.00 0.00 72 1011.3
20260505164323 56 107 2.6 8.7 0.00 0.00 0.00 71 1011.4
20260505164301 56 108 2.6 8.7 0.00 0.00 0.00 72 1011.4
20260505164033 56 108 2.6 8.7 0.00 0.00 0.00 72 1011.4
20260505163311 55 127 2.6 9.6 0.00 0.00 0.00 72 1011.4
20260505162815 56 72 2.6 9.6 0.00 0.00 0.00 72 1011.4
20260505162805 56 181 2.6 9.6 0.00 0.00 0.00 72 1011.4
20260505162258 56 49 3.5 10.4 0.00 0.00 0.00 71 1011.4
20260505162246 56 138 2.6 10.4 0.00 0.00 0.00 71 1011.3
20260505161753 56 161 2.6 10.4 0.00 0.00 0.00 71 1011.3
20260505161247 56 22 3.5 11.3 0.00 0.00 0.00 71 1011.2
20260505160813 56 354 3.5 11.3 0.00 0.00 0.00 71 1011.2
20260505160741 56 14 3.5 11.3 0.00 0.00 0.00 71 1011.3
20260505160236 56 68 2.6 9.6 0.00 0.00 0.00 71 1011.4
20260505153214 56 347 2.6 8.7 0.00 0.00 0.00 69 1011.3
20260505152813 57 36 2.6 10.4 0.00 0.00 0.00 69 1011.3
20260505152716 57 182 3.5 10.4 0.00 0.00 0.00 69 1011.4
20260505152212 57 132 3.5 10.4 0.00 0.00 0.00 69 1011.3
20260505151812 57 343 3.5 11.3 0.00 0.00 0.00 68 1011.4
20260505151712 57 346 3.5 11.3 0.00 0.00 0.00 68 1011.4
20260505151214 57 107 3.5 11.3 0.00 0.00 0.00 66 1011.4
20260505150812 57 112 3.5 11.3 0.00 0.00 0.00 68 1011.4
20260505150713 57 108 3.5 11.3 0.00 0.00 0.00 68 1011.3
20260505150211 57 127 4.3 12.2 0.00 0.00 0.00 68 1011.3
20260505140209 58 168 3.5 9.6 0.00 0.00 0.00 67 1011.7
20260505130210 57 92 3.5 9.6 0.00 0.00 0.00 69 1012.0
20260505124804 57 61 2.6 8.7 0.00 0.00 0.00 68 1012.0
20260505124709 57 103 3.5 8.7 0.00 0.00 0.00 68 1012.0
20260505124209 58 142 2.6 9.6 0.00 0.00 0.00 68 1012.0
20260505123805 58 11 2.6 9.6 0.00 0.00 0.00 68 1012.0
20260505123708 58 117 2.6 7.8 0.00 0.00 0.00 68 1012.1
20260505123209 58 90 2.6 7.8 0.00 0.00 0.00 69 1012.1
20260505122807 57 39 2.6 8.7 0.00 0.00 0.00 69 1012.1
20260505122705 57 15 2.6 8.7 0.00 0.00 0.00 70 1012.0
20260505122205 57 69 3.5 8.7 0.00 0.00 0.00 68 1012.1
20260505121804 56 136 3.5 8.7 0.00 0.00 0.00 69 1012.1
20260505121707 56 69 3.5 9.6 0.00 0.00 0.00 69 1012.2
20260505121203 56 98 3.5 9.6 0.00 0.00 0.00 70 1012.2
20260505120806 56 127 3.5 9.6 0.00 0.00 0.00 69 1012.2
20260505120703 57 144 3.5 9.6 0.00 0.00 0.00 69 1012.2
20260505120204 57 140 2.6 7.0 0.00 0.00 0.00 69 1012.1
20260505115806 57 43 2.6 7.0 0.00 0.00 0.00 70 1012.2
20260505115702 57 28 2.6 7.0 0.00 0.00 0.00 69 1012.2
20260505115203 57 54 2.6 8.7 0.00 0.00 0.00 69 1012.2
20260505114804 56 3 3.5 8.7 0.00 0.00 0.00 69 1012.4
20260505114702 56 127 3.5 8.7 0.00 0.00 0.00 69 1012.3
20260505114250 56 106 3.5 10.4 0.00 0.00 0.00 69 1012.4
20260505114201 56 107 3.5 10.4 0.00 0.00 0.00 69 1012.3
20260505113737 56 90 3.5 11.3 0.00 0.00 0.00 68 1012.5
20260505113702 56 131 3.5 10.4 0.00 0.00 0.00 69 1012.3
20260505113202 56 127 3.5 9.6 0.00 0.00 0.00 68 1012.4
20260505112656 56 52 3.5 11.3 0.00 0.00 0.00 68 1012.6
20260505112150 56 75 3.5 11.3 0.00 0.00 0.00 69 1012.5
20260505111803 56 61 3.5 10.4 0.00 0.00 0.00 70 1012.5
20260505111644 56 134 3.5 10.4 0.00 0.00 0.00 70 1012.6
20260505111138 56 324 3.5 8.7 0.00 0.00 0.00 69 1012.5
20260505110802 56 127 3.5 7.8 0.00 0.00 0.00 69 1012.4
20260505110632 56 138 3.5 7.8 0.00 0.00 0.00 69 1012.5
20260505110126 56 106 3.5 9.6 0.00 0.00 0.00 69 1012.5
20260505102037 56 122 3.5 9.6 0.00 0.00 0.00 69 1013.0
20260505101756 56 133 3.5 12.2 0.00 0.00 0.00 69 1012.8
20260505101716 57 55 2.6 6.1 0.00 0.00 0.00 70 1012.9
20260505101532 56 89 3.5 12.2 0.00 0.00 0.00 70 1012.8
20260505101039 56 122 2.6 12.2 0.00 0.00 0.00 69 1012.9
20260505100520 57 112 2.6 5.2 0.00 0.00 0.00 69 1012.9
20260505100014 56 61 2.6 9.6 0.00 0.00 0.00 70 1012.8
20260505095757 56 110 2.6 9.6 0.00 0.00 0.00 70 1012.8
20260505095508 56 83 2.6 9.6 0.00 0.00 0.00 69 1012.8
20260505095002 56 140 2.6 8.7 0.00 0.00 0.00 70 1012.8
20260505094758 56 142 2.6 8.7 0.00 0.00 0.00 71 1012.7
20260505094715 55 111 3.5 9.6 0.00 0.00 0.00 69 1012.5
20260505094521 56 157 3.5 9.6 0.00 0.00 0.00 71 1012.7
20260505094034 55 91 3.5 9.6 0.00 0.00 0.00 70 1012.6
20260505093444 55 127 3.5 8.7 0.00 0.00 0.00 70 1012.5
20260505092938 55 27 2.6 8.7 0.00 0.00 0.00 70 1012.4
20260505092757 56 117 2.6 8.7 0.00 0.00 0.00 70 1012.4
20260505092432 56 135 2.6 7.8 0.00 0.00 0.00 71 1012.5